Airfield :
LOGIN :

Register | Disclaimer

   EN    FR    IT 

 










Legend :    VFR   Marginal VFR   IFR   Intensive IFR   Very Intensive IFR
Visi :
Ceiling :
>= 8 km
>= 3000ft
5 to 8 km
1000 to 3000 ft
1500m to 5 km
500 to 1000 ft
800 to 1500m
200 to 500 ft
< 800m
< 200 ft
Symbols :   Thunderstorms  Fog  Heavy snow  Heavy precipitations  Wind > 20 kt
SIGMETs :     Misc.  Thunderstorms  Icing  Turbulence  Mountain Waves  Volcanic Ashes






- Airport Elevation : 935 ft


EBFS - Florennes

CURRENT METAR :
  • 152355Z AUTO 17007KT 9999 SCT110/// BKN180/// 05/04 Q1006 BLU

EXPIRED METARs :
  • 152325Z AUTO 17007KT 9999 FEW048/// BKN210/// 05/04 Q1006 BLU
  • 152255Z AUTO 16008KT 9999 FEW050/// BKN190/// 05/04 Q1006 BLU
  • 152225Z AUTO 16008KT 9999 BKN120/// BKN210/// 05/04 Q1006 BLU
  • 152155Z AUTO 16008KT 9999 FEW006/// SCT220/// 05/04 Q1006 BLU
  • 152148Z AUTO 17009KT 9999 FEW006/// SCT200/// 05/04 Q1006 BLU
  • 152133Z AUTO 16010KT 9999 SCT006/// BKN210/// 05/04 Q1006 YLO

Expired Forecast.



MET'MAP, your aeronautical weather chart ! - Copyright ORBIFLY December 2007 - Disclaimer

ORBIFLY MET'MAP TEAM :

Programming & Development : Alexandra Zaïnal
Concept & original design : Baudouin d'Aumeries
Assistance for programming : Marc-Olivier Méhu
Technical & hardware support : Manuel Goepfert

Contact : metmap@orbifly.com




SOURCES & CREDITS :

   NOAA